Airfield :
LOGIN :

Register | Disclaimer

   EN    FR    IT 

 










Legend :    VFR   Marginal VFR   IFR   Intensive IFR   Very Intensive IFR
Visi :
Ceiling :
>= 8 km
>= 3000ft
5 to 8 km
1000 to 3000 ft
1500m to 5 km
500 to 1000 ft
800 to 1500m
200 to 500 ft
< 800m
< 200 ft
Symbols :   Thunderstorms  Fog  Heavy snow  Heavy precipitations  Wind > 20 kt
SIGMETs :     Misc.  Thunderstorms  Icing  Turbulence  Mountain Waves  Volcanic Ashes







- Airport Elevation : 7 ft
- IATA code : VCE


LIPZ - Marco Polo Int. Venezia

CURRENT METAR :
  • 180650Z 36006KT 320V040 0400 R04R/0900N FG OVC002 13/13 Q1020 NOSIG

EXPIRED METARs :
  • 180620Z 36006KT 320V020 0400 R04R/0700U FG OVC002 13/13 Q1020 NOSIG
  • 180550Z VRB02KT 0400 R04R/P1500D BCFG OVC002 13/13 Q1020 NOSIG
  • 180520Z 34003KT 290V030 0500 R04R/P1500N BCFG OVC002 14/13 Q1020 NOSIG

TAF TAF LIPZ
Valid from the 18 at 06:00 until the 19 at 12:00 UTC


180529Z 1806/1912 VRB05KT 0500 BCFG OVC002
BECMG 1808/1811 1500 BR NSC
BECMG 1812/1814 3000 BR
BECMG 1815/1818 1500 BR 1818/1820 0500 FG OVC001
BECMG 1908/1911 1500 BR NSC
No reported NOTAMs for that airfield.



MET'MAP, your aeronautical weather chart ! - Copyright ORBIFLY December 2007 - Disclaimer

ORBIFLY MET'MAP TEAM :

Programming & Development : Alexandra Zaïnal
Concept & Development : Baudouin d'Aumeries
Co-Development & Prog : Marc-Olivier Méhu
Technical & hardware support : Manuel Goepfert

Contact : metmap@orbifly.com




SOURCES & CREDITS :

   NOAA